sensor_id;sensor_type;location;lat;lon;timestamp;temperature;humidity
55648;DHT22;45266;48.756;9.246;2022-07-30T00:00:30;16.00;99.90
55648;DHT22;45266;48.756;9.246;2022-07-30T00:01:32;16.00;99.90
55648;DHT22;45266;48.756;9.246;2022-07-30T00:02:36;16.10;99.90
55648;DHT22;45266;48.756;9.246;2022-07-30T00:03:38;16.10;99.90
55648;DHT22;45266;48.756;9.246;2022-07-30T00:04:40;16.10;99.90
55648;DHT22;45266;48.756;9.246;2022-07-30T00:05:42;16.10;99.90
55648;DHT22;45266;48.756;9.246;2022-07-30T00:06:44;16.10;99.90
55648;DHT22;45266;48.756;9.246;2022-07-30T00:07:46;16.10;99.90
55648;DHT22;45266;48.756;9.246;2022-07-30T00:08:47;16.10;99.90
55648;DHT22;45266;48.756;9.246;2022-07-30T00:09:49;16.10;99.90
55648;DHT22;45266;48.756;9.246;2022-07-30T00:10:51;16.10;99.90
55648;DHT22;45266;48.756;9.246;2022-07-30T00:11:53;16.10;99.90
55648;DHT22;45266;48.756;9.246;2022-07-30T00:12:55;16.10;99.90
55648;DHT22;45266;48.756;9.246;2022-07-30T00:13:57;16.10;99.90
55648;DHT22;45266;48.756;9.246;2022-07-30T00:14:59;16.00;99.90
55648;DHT22;45266;48.756;9.246;2022-07-30T00:16:01;16.00;99.90
55648;DHT22;45266;48.756;9.246;2022-07-30T00:17:03;16.00;99.90
55648;DHT22;45266;48.756;9.246;2022-07-30T00:18:06;16.00;99.90
55648;DHT22;45266;48.756;9.246;2022-07-30T00:19:08;16.00;99.90
55648;DHT22;45266;48.756;9.246;2022-07-30T00:20:10;16.00;99.90
55648;DHT22;45266;48.756;9.246;2022-07-30T00:21:14;16.00;99.90
55648;DHT22;45266;48.756;9.246;2022-07-30T00:22:35;16.00;99.90
55648;DHT22;45266;48.756;9.246;2022-07-30T00:23:37;16.00;99.90
55648;DHT22;45266;48.756;9.246;2022-07-30T00:24:38;16.00;99.90
55648;DHT22;45266;48.756;9.246;2022-07-30T00:25:40;16.00;99.90
55648;DHT22;45266;48.756;9.246;2022-07-30T00:26:42;16.00;99.90
55648;DHT22;45266;48.756;9.246;2022-07-30T00:27:44;16.00;99.90
55648;DHT22;45266;48.756;9.246;2022-07-30T00:28:46;16.00;99.90
55648;DHT22;45266;48.756;9.246;2022-07-30T00:29:47;16.00;99.90
55648;DHT22;45266;48.756;9.246;2022-07-30T00:30:49;16.00;99.90
55648;DHT22;45266;48.756;9.246;2022-07-30T00:31:56;16.00;99.90
55648;DHT22;45266;48.756;9.246;2022-07-30T00:32:58;16.00;99.90
55648;DHT22;45266;48.756;9.246;2022-07-30T00:34:00;16.00;99.90
55648;DHT22;45266;48.756;9.246;2022-07-30T00:35:02;16.00;99.90
55648;DHT22;45266;48.756;9.246;2022-07-30T00:36:04;16.00;99.90
55648;DHT22;45266;48.756;9.246;2022-07-30T00:37:06;16.00;99.90
55648;DHT22;45266;48.756;9.246;2022-07-30T00:38:07;16.00;99.90
55648;DHT22;45266;48.756;9.246;2022-07-30T00:39:09;16.00;99.90
55648;DHT22;45266;48.756;9.246;2022-07-30T00:40:11;16.00;99.90
55648;DHT22;45266;48.756;9.246;2022-07-30T00:41:13;16.00;99.90
55648;DHT22;45266;48.756;9.246;2022-07-30T00:42:16;16.00;99.90
55648;DHT22;45266;48.756;9.246;2022-07-30T00:43:23;16.10;99.90
55648;DHT22;45266;48.756;9.246;2022-07-30T00:44:26;16.10;99.90
55648;DHT22;45266;48.756;9.246;2022-07-30T00:45:28;16.10;99.90
55648;DHT22;45266;48.756;9.246;2022-07-30T00:46:29;16.10;99.90
55648;DHT22;45266;48.756;9.246;2022-07-30T00:47:31;16.10;99.90
55648;DHT22;45266;48.756;9.246;2022-07-30T00:48:33;16.10;99.90
55648;DHT22;45266;48.756;9.246;2022-07-30T00:49:35;16.10;99.90
55648;DHT22;45266;48.756;9.246;2022-07-30T00:50:42;16.10;99.90
55648;DHT22;45266;48.756;9.246;2022-07-30T00:51:45;16.10;99.90
55648;DHT22;45266;48.756;9.246;2022-07-30T00:52:47;16.10;99.90
55648;DHT22;45266;48.756;9.246;2022-07-30T00:53:50;16.10;99.90
55648;DHT22;45266;48.756;9.246;2022-07-30T00:54:51;16.10;99.90
55648;DHT22;45266;48.756;9.246;2022-07-30T00:55:53;16.10;99.90
55648;DHT22;45266;48.756;9.246;2022-07-30T00:56:55;16.20;99.90
55648;DHT22;45266;48.756;9.246;2022-07-30T00:57:57;16.20;99.90
55648;DHT22;45266;48.756;9.246;2022-07-30T00:58:59;16.10;99.90
55648;DHT22;45266;48.756;9.246;2022-07-30T01:00:02;16.10;99.90
55648;DHT22;45266;48.756;9.246;2022-07-30T01:01:04;16.10;99.90
55648;DHT22;45266;48.756;9.246;2022-07-30T01:02:06;16.10;99.90
55648;DHT22;45266;48.756;9.246;2022-07-30T01:03:07;16.10;99.90
55648;DHT22;45266;48.756;9.246;2022-07-30T01:04:09;16.10;99.90
55648;DHT22;45266;48.756;9.246;2022-07-30T01:05:15;16.10;99.90
55648;DHT22;45266;48.756;9.246;2022-07-30T01:06:16;16.20;99.90
55648;DHT22;45266;48.756;9.246;2022-07-30T01:07:18;16.20;99.90
55648;DHT22;45266;48.756;9.246;2022-07-30T01:08:20;16.20;99.90
55648;DHT22;45266;48.756;9.246;2022-07-30T01:09:22;16.10;99.90
55648;DHT22;45266;48.756;9.246;2022-07-30T01:10:24;16.10;99.90
55648;DHT22;45266;48.756;9.246;2022-07-30T01:11:33;16.20;99.90
55648;DHT22;45266;48.756;9.246;2022-07-30T01:12:36;16.10;99.90
55648;DHT22;45266;48.756;9.246;2022-07-30T01:13:38;16.20;99.90
55648;DHT22;45266;48.756;9.246;2022-07-30T01:14:40;16.20;99.90
55648;DHT22;45266;48.756;9.246;2022-07-30T01:15:42;16.20;99.90
55648;DHT22;45266;48.756;9.246;2022-07-30T01:16:44;16.30;99.90
55648;DHT22;45266;48.756;9.246;2022-07-30T01:17:48;16.20;99.90
55648;DHT22;45266;48.756;9.246;2022-07-30T01:18:55;16.20;99.90
55648;DHT22;45266;48.756;9.246;2022-07-30T01:20:22;16.20;99.90
55648;DHT22;45266;48.756;9.246;2022-07-30T01:21:31;16.20;99.90
55648;DHT22;45266;48.756;9.246;2022-07-30T01:23:12;16.20;99.90
55648;DHT22;45266;48.756;9.246;2022-07-30T01:24:35;16.20;99.90
55648;DHT22;45266;48.756;9.246;2022-07-30T01:25:55;16.20;99.90
55648;DHT22;45266;48.756;9.246;2022-07-30T01:26:59;16.20;99.90
55648;DHT22;45266;48.756;9.246;2022-07-30T01:28:13;16.20;99.90
55648;DHT22;45266;48.756;9.246;2022-07-30T01:29:19;16.20;99.90
55648;DHT22;45266;48.756;9.246;2022-07-30T01:30:25;16.20;99.90
55648;DHT22;45266;48.756;9.246;2022-07-30T01:31:27;16.30;99.90
55648;DHT22;45266;48.756;9.246;2022-07-30T01:32:32;16.30;99.90
55648;DHT22;45266;48.756;9.246;2022-07-30T01:33:38;16.20;99.90
55648;DHT22;45266;48.756;9.246;2022-07-30T01:34:41;16.30;99.90
55648;DHT22;45266;48.756;9.246;2022-07-30T01:35:45;16.20;99.90
55648;DHT22;45266;48.756;9.246;2022-07-30T01:36:49;16.20;99.90
55648;DHT22;45266;48.756;9.246;2022-07-30T01:37:52;16.30;99.90
55648;DHT22;45266;48.756;9.246;2022-07-30T01:38:55;16.20;99.90
55648;DHT22;45266;48.756;9.246;2022-07-30T01:39:58;16.20;99.90
55648;DHT22;45266;48.756;9.246;2022-07-30T01:41:01;16.20;99.90
55648;DHT22;45266;48.756;9.246;2022-07-30T01:42:05;16.20;99.90
55648;DHT22;45266;48.756;9.246;2022-07-30T01:43:09;16.20;99.90
55648;DHT22;45266;48.756;9.246;2022-07-30T01:44:12;16.20;99.90
55648;DHT22;45266;48.756;9.246;2022-07-30T01:45:26;16.20;99.90
55648;DHT22;45266;48.756;9.246;2022-07-30T01:46:29;16.20;99.90
55648;DHT22;45266;48.756;9.246;2022-07-30T01:47:34;16.20;99.90
55648;DHT22;45266;48.756;9.246;2022-07-30T01:48:38;16.20;99.90
55648;DHT22;45266;48.756;9.246;2022-07-30T01:49:44;16.20;99.90
55648;DHT22;45266;48.756;9.246;2022-07-30T01:50:49;16.20;99.90
55648;DHT22;45266;48.756;9.246;2022-07-30T01:51:52;16.20;99.90
55648;DHT22;45266;48.756;9.246;2022-07-30T01:52:57;16.10;99.90
55648;DHT22;45266;48.756;9.246;2022-07-30T01:53:59;16.10;99.90
55648;DHT22;45266;48.756;9.246;2022-07-30T01:55:02;16.10;99.90
55648;DHT22;45266;48.756;9.246;2022-07-30T01:56:18;16.10;99.90
55648;DHT22;45266;48.756;9.246;2022-07-30T01:57:25;16.10;99.90
55648;DHT22;45266;48.756;9.246;2022-07-30T01:58:31;16.10;99.90
55648;DHT22;45266;48.756;9.246;2022-07-30T01:59:36;16.10;99.90
55648;DHT22;45266;48.756;9.246;2022-07-30T02:00:42;16.10;99.90
55648;DHT22;45266;48.756;9.246;2022-07-30T02:01:45;16.10;99.90
55648;DHT22;45266;48.756;9.246;2022-07-30T02:02:47;16.10;99.90
55648;DHT22;45266;48.756;9.246;2022-07-30T02:03:48;16.10;99.90
55648;DHT22;45266;48.756;9.246;2022-07-30T02:04:50;16.10;99.90
55648;DHT22;45266;48.756;9.246;2022-07-30T02:05:57;16.10;99.90
55648;DHT22;45266;48.756;9.246;2022-07-30T02:07:11;16.00;99.90
55648;DHT22;45266;48.756;9.246;2022-07-30T02:08:21;16.00;99.90
55648;DHT22;45266;48.756;9.246;2022-07-30T02:09:35;16.00;99.90
55648;DHT22;45266;48.756;9.246;2022-07-30T02:10:43;16.00;99.90
55648;DHT22;45266;48.756;9.246;2022-07-30T02:11:48;16.00;99.90
55648;DHT22;45266;48.756;9.246;2022-07-30T02:13:12;16.00;99.90
55648;DHT22;45266;48.756;9.246;2022-07-30T02:14:21;16.00;99.90
55648;DHT22;45266;48.756;9.246;2022-07-30T02:16:49;16.00;99.90
55648;DHT22;45266;48.756;9.246;2022-07-30T02:18:32;15.90;99.90
55648;DHT22;45266;48.756;9.246;2022-07-30T02:19:42;15.90;99.90
55648;DHT22;45266;48.756;9.246;2022-07-30T02:20:52;15.90;99.90
55648;DHT22;45266;48.756;9.246;2022-07-30T02:22:05;15.90;99.90
55648;DHT22;45266;48.756;9.246;2022-07-30T02:23:10;15.80;99.90
55648;DHT22;45266;48.756;9.246;2022-07-30T02:24:16;15.80;99.90
55648;DHT22;45266;48.756;9.246;2022-07-30T02:25:20;15.80;99.90
55648;DHT22;45266;48.756;9.246;2022-07-30T02:26:23;15.80;99.90
55648;DHT22;45266;48.756;9.246;2022-07-30T02:27:29;15.80;99.90
55648;DHT22;45266;48.756;9.246;2022-07-30T02:28:36;15.80;99.90
55648;DHT22;45266;48.756;9.246;2022-07-30T02:29:39;15.70;99.90
55648;DHT22;45266;48.756;9.246;2022-07-30T02:30:51;15.70;99.90
55648;DHT22;45266;48.756;9.246;2022-07-30T02:31:55;15.70;99.90
55648;DHT22;45266;48.756;9.246;2022-07-30T02:33:02;15.70;99.90
55648;DHT22;45266;48.756;9.246;2022-07-30T02:34:05;15.70;99.90
55648;DHT22;45266;48.756;9.246;2022-07-30T02:35:21;15.70;99.90
55648;DHT22;45266;48.756;9.246;2022-07-30T02:36:24;15.70;99.90
55648;DHT22;45266;48.756;9.246;2022-07-30T02:37:29;15.70;99.90
55648;DHT22;45266;48.756;9.246;2022-07-30T02:38:45;15.60;99.90
55648;DHT22;45266;48.756;9.246;2022-07-30T02:39:49;15.60;99.90
55648;DHT22;45266;48.756;9.246;2022-07-30T02:40:54;15.60;99.90
55648;DHT22;45266;48.756;9.246;2022-07-30T02:41:58;15.60;99.90
55648;DHT22;45266;48.756;9.246;2022-07-30T02:43:00;15.60;99.90
55648;DHT22;45266;48.756;9.246;2022-07-30T02:44:03;15.50;99.90
55648;DHT22;45266;48.756;9.246;2022-07-30T02:45:06;15.50;99.90
55648;DHT22;45266;48.756;9.246;2022-07-30T02:46:10;15.50;99.90
55648;DHT22;45266;48.756;9.246;2022-07-30T02:47:13;15.50;99.90
55648;DHT22;45266;48.756;9.246;2022-07-30T02:48:20;15.50;99.90
55648;DHT22;45266;48.756;9.246;2022-07-30T02:49:36;15.40;99.90
55648;DHT22;45266;48.756;9.246;2022-07-30T02:50:40;15.40;99.90
55648;DHT22;45266;48.756;9.246;2022-07-30T02:51:45;15.40;99.90
55648;DHT22;45266;48.756;9.246;2022-07-30T02:52:48;15.40;99.90
55648;DHT22;45266;48.756;9.246;2022-07-30T02:53:52;15.40;99.90
55648;DHT22;45266;48.756;9.246;2022-07-30T02:54:56;15.40;99.90
55648;DHT22;45266;48.756;9.246;2022-07-30T02:55:59;15.30;99.90
55648;DHT22;45266;48.756;9.246;2022-07-30T02:57:02;15.30;99.90
55648;DHT22;45266;48.756;9.246;2022-07-30T02:58:06;15.30;99.90
55648;DHT22;45266;48.756;9.246;2022-07-30T02:59:09;15.30;99.90
55648;DHT22;45266;48.756;9.246;2022-07-30T03:00:12;15.30;99.90
55648;DHT22;45266;48.756;9.246;2022-07-30T03:01:15;15.30;99.90
55648;DHT22;45266;48.756;9.246;2022-07-30T03:02:19;15.30;99.90
55648;DHT22;45266;48.756;9.246;2022-07-30T03:03:31;15.30;99.90
55648;DHT22;45266;48.756;9.246;2022-07-30T03:04:34;15.30;99.90
55648;DHT22;45266;48.756;9.246;2022-07-30T03:05:38;15.30;99.90
55648;DHT22;45266;48.756;9.246;2022-07-30T03:06:42;15.30;99.90
55648;DHT22;45266;48.756;9.246;2022-07-30T03:07:45;15.30;99.90
55648;DHT22;45266;48.756;9.246;2022-07-30T03:08:48;15.30;99.90
55648;DHT22;45266;48.756;9.246;2022-07-30T03:09:54;15.20;99.90
55648;DHT22;45266;48.756;9.246;2022-07-30T03:10:57;15.20;99.90
55648;DHT22;45266;48.756;9.246;2022-07-30T03:12:00;15.20;99.90
55648;DHT22;45266;48.756;9.246;2022-07-30T03:13:04;15.20;99.90
55648;DHT22;45266;48.756;9.246;2022-07-30T03:14:07;15.20;99.90
55648;DHT22;45266;48.756;9.246;2022-07-30T03:15:09;15.20;99.90
55648;DHT22;45266;48.756;9.246;2022-07-30T03:16:12;15.20;99.90
55648;DHT22;45266;48.756;9.246;2022-07-30T03:17:16;15.20;99.90
55648;DHT22;45266;48.756;9.246;2022-07-30T03:18:21;15.10;99.90
55648;DHT22;45266;48.756;9.246;2022-07-30T03:19:26;15.10;99.90
55648;DHT22;45266;48.756;9.246;2022-07-30T03:20:30;15.10;99.90
55648;DHT22;45266;48.756;9.246;2022-07-30T03:21:36;15.00;99.90
55648;DHT22;45266;48.756;9.246;2022-07-30T03:22:43;15.00;99.90
55648;DHT22;45266;48.756;9.246;2022-07-30T03:23:48;15.00;99.90
55648;DHT22;45266;48.756;9.246;2022-07-30T03:24:51;15.00;99.90
55648;DHT22;45266;48.756;9.246;2022-07-30T03:25:57;15.00;99.90
55648;DHT22;45266;48.756;9.246;2022-07-30T03:27:00;15.00;99.90
55648;DHT22;45266;48.756;9.246;2022-07-30T03:28:05;15.00;99.90
55648;DHT22;45266;48.756;9.246;2022-07-30T03:29:08;15.00;99.90
55648;DHT22;45266;48.756;9.246;2022-07-30T03:30:11;14.90;99.90
55648;DHT22;45266;48.756;9.246;2022-07-30T03:31:14;14.90;99.90
55648;DHT22;45266;48.756;9.246;2022-07-30T03:32:17;14.90;99.90
55648;DHT22;45266;48.756;9.246;2022-07-30T03:33:26;14.90;99.90
55648;DHT22;45266;48.756;9.246;2022-07-30T03:34:40;14.90;99.90
55648;DHT22;45266;48.756;9.246;2022-07-30T03:35:45;14.90;99.90
55648;DHT22;45266;48.756;9.246;2022-07-30T03:36:48;14.90;99.90
55648;DHT22;45266;48.756;9.246;2022-07-30T03:37:51;14.90;99.90
55648;DHT22;45266;48.756;9.246;2022-07-30T03:38:53;14.80;99.90
55648;DHT22;45266;48.756;9.246;2022-07-30T03:39:56;14.80;99.90
55648;DHT22;45266;48.756;9.246;2022-07-30T03:40:59;14.90;99.90
55648;DHT22;45266;48.756;9.246;2022-07-30T03:42:02;14.80;99.90
55648;DHT22;45266;48.756;9.246;2022-07-30T03:43:04;14.90;99.90
55648;DHT22;45266;48.756;9.246;2022-07-30T03:44:28;14.90;99.90
55648;DHT22;45266;48.756;9.246;2022-07-30T03:45:31;14.90;99.90
55648;DHT22;45266;48.756;9.246;2022-07-30T03:46:35;14.80;99.90
55648;DHT22;45266;48.756;9.246;2022-07-30T03:47:38;14.80;99.90
55648;DHT22;45266;48.756;9.246;2022-07-30T03:48:43;14.80;99.90
55648;DHT22;45266;48.756;9.246;2022-07-30T03:49:45;14.80;99.90
55648;DHT22;45266;48.756;9.246;2022-07-30T03:50:47;14.80;99.90
55648;DHT22;45266;48.756;9.246;2022-07-30T03:51:51;14.80;99.90
55648;DHT22;45266;48.756;9.246;2022-07-30T03:52:53;14.80;99.90
55648;DHT22;45266;48.756;9.246;2022-07-30T03:53:55;14.80;99.90
55648;DHT22;45266;48.756;9.246;2022-07-30T03:54:57;14.80;99.90
55648;DHT22;45266;48.756;9.246;2022-07-30T03:56:00;14.80;99.90
55648;DHT22;45266;48.756;9.246;2022-07-30T03:57:04;14.80;99.90
55648;DHT22;45266;48.756;9.246;2022-07-30T03:58:06;14.70;99.90
55648;DHT22;45266;48.756;9.246;2022-07-30T03:59:08;14.70;99.90
55648;DHT22;45266;48.756;9.246;2022-07-30T04:00:14;14.70;99.90
55648;DHT22;45266;48.756;9.246;2022-07-30T04:01:16;14.70;99.90
55648;DHT22;45266;48.756;9.246;2022-07-30T04:02:18;14.70;99.90
55648;DHT22;45266;48.756;9.246;2022-07-30T04:03:28;14.70;99.90
55648;DHT22;45266;48.756;9.246;2022-07-30T04:04:30;14.70;99.90
55648;DHT22;45266;48.756;9.246;2022-07-30T04:05:32;14.70;99.90
55648;DHT22;45266;48.756;9.246;2022-07-30T04:06:42;14.70;99.90
55648;DHT22;45266;48.756;9.246;2022-07-30T04:07:46;14.70;99.90
55648;DHT22;45266;48.756;9.246;2022-07-30T04:08:48;14.70;99.90
55648;DHT22;45266;48.756;9.246;2022-07-30T04:09:50;14.70;99.90
55648;DHT22;45266;48.756;9.246;2022-07-30T04:10:51;14.60;99.90
55648;DHT22;45266;48.756;9.246;2022-07-30T04:11:53;14.60;99.90
55648;DHT22;45266;48.756;9.246;2022-07-30T04:12:55;14.60;99.90
55648;DHT22;45266;48.756;9.246;2022-07-30T04:13:57;14.60;99.90
55648;DHT22;45266;48.756;9.246;2022-07-30T04:14:59;14.60;99.90
55648;DHT22;45266;48.756;9.246;2022-07-30T04:16:12;14.60;99.90
55648;DHT22;45266;48.756;9.246;2022-07-30T04:17:48;14.60;99.90
55648;DHT22;45266;48.756;9.246;2022-07-30T04:18:52;14.60;99.90
55648;DHT22;45266;48.756;9.246;2022-07-30T04:20:43;14.60;99.90
55648;DHT22;45266;48.756;9.246;2022-07-30T04:21:26;14.60;99.90
55648;DHT22;45266;48.756;9.246;2022-07-30T04:22:32;14.60;99.90
55648;DHT22;45266;48.756;9.246;2022-07-30T04:23:36;14.60;99.90
55648;DHT22;45266;48.756;9.246;2022-07-30T04:25:00;14.60;99.90
55648;DHT22;45266;48.756;9.246;2022-07-30T04:26:03;14.60;99.90
55648;DHT22;45266;48.756;9.246;2022-07-30T04:27:05;14.60;99.90
55648;DHT22;45266;48.756;9.246;2022-07-30T04:28:08;14.60;99.90
55648;DHT22;45266;48.756;9.246;2022-07-30T04:29:11;14.60;99.90
55648;DHT22;45266;48.756;9.246;2022-07-30T04:30:14;14.60;99.90
55648;DHT22;45266;48.756;9.246;2022-07-30T04:31:16;14.60;99.90
55648;DHT22;45266;48.756;9.246;2022-07-30T04:32:19;14.60;99.90
55648;DHT22;45266;48.756;9.246;2022-07-30T04:33:20;14.60;99.90
55648;DHT22;45266;48.756;9.246;2022-07-30T04:34:22;14.60;99.90
55648;DHT22;45266;48.756;9.246;2022-07-30T04:35:28;14.60;99.90
55648;DHT22;45266;48.756;9.246;2022-07-30T04:36:50;14.60;99.90
55648;DHT22;45266;48.756;9.246;2022-07-30T04:37:52;14.60;99.90
55648;DHT22;45266;48.756;9.246;2022-07-30T04:38:53;14.60;99.90
55648;DHT22;45266;48.756;9.246;2022-07-30T04:39:55;14.60;99.90
55648;DHT22;45266;48.756;9.246;2022-07-30T04:41:00;14.60;99.90
55648;DHT22;45266;48.756;9.246;2022-07-30T04:42:02;14.60;99.90
55648;DHT22;45266;48.756;9.246;2022-07-30T04:43:04;14.70;99.90
55648;DHT22;45266;48.756;9.246;2022-07-30T04:44:06;14.70;99.90
55648;DHT22;45266;48.756;9.246;2022-07-30T04:45:08;14.70;99.90
55648;DHT22;45266;48.756;9.246;2022-07-30T04:46:13;14.70;99.90
55648;DHT22;45266;48.756;9.246;2022-07-30T04:47:16;14.70;99.90
55648;DHT22;45266;48.756;9.246;2022-07-30T04:48:18;14.60;99.90
55648;DHT22;45266;48.756;9.246;2022-07-30T04:49:20;14.70;99.90
55648;DHT22;45266;48.756;9.246;2022-07-30T04:50:26;14.70;99.90
55648;DHT22;45266;48.756;9.246;2022-07-30T04:51:31;14.70;99.90
55648;DHT22;45266;48.756;9.246;2022-07-30T04:52:35;14.70;99.90
55648;DHT22;45266;48.756;9.246;2022-07-30T04:53:39;14.70;99.90
55648;DHT22;45266;48.756;9.246;2022-07-30T04:55:10;14.70;99.90
55648;DHT22;45266;48.756;9.246;2022-07-30T04:56:13;14.80;99.90
55648;DHT22;45266;48.756;9.246;2022-07-30T04:57:17;14.70;99.90
55648;DHT22;45266;48.756;9.246;2022-07-30T04:58:19;14.80;99.90
55648;DHT22;45266;48.756;9.246;2022-07-30T04:59:23;14.80;99.90
55648;DHT22;45266;48.756;9.246;2022-07-30T05:00:26;14.80;99.90
55648;DHT22;45266;48.756;9.246;2022-07-30T05:01:34;14.90;99.90
55648;DHT22;45266;48.756;9.246;2022-07-30T05:02:42;14.90;99.90
55648;DHT22;45266;48.756;9.246;2022-07-30T05:03:45;14.90;99.90
55648;DHT22;45266;48.756;9.246;2022-07-30T05:04:48;14.90;99.90
55648;DHT22;45266;48.756;9.246;2022-07-30T05:05:51;14.90;99.90
55648;DHT22;45266;48.756;9.246;2022-07-30T05:06:59;14.90;99.90
55648;DHT22;45266;48.756;9.246;2022-07-30T05:08:02;14.90;99.90
55648;DHT22;45266;48.756;9.246;2022-07-30T05:09:04;15.00;99.90
55648;DHT22;45266;48.756;9.246;2022-07-30T05:10:07;15.00;99.90
55648;DHT22;45266;48.756;9.246;2022-07-30T05:11:13;15.00;99.90
55648;DHT22;45266;48.756;9.246;2022-07-30T05:12:15;15.10;99.90
55648;DHT22;45266;48.756;9.246;2022-07-30T05:13:16;15.10;99.90
55648;DHT22;45266;48.756;9.246;2022-07-30T05:14:23;15.10;99.90
55648;DHT22;45266;48.756;9.246;2022-07-30T05:15:26;15.10;99.90
55648;DHT22;45266;48.756;9.246;2022-07-30T05:16:37;15.20;99.90
55648;DHT22;45266;48.756;9.246;2022-07-30T05:17:40;15.20;99.90
55648;DHT22;45266;48.756;9.246;2022-07-30T05:18:42;15.30;99.90
55648;DHT22;45266;48.756;9.246;2022-07-30T05:19:44;15.30;99.90
55648;DHT22;45266;48.756;9.246;2022-07-30T05:20:48;15.30;99.90
55648;DHT22;45266;48.756;9.246;2022-07-30T05:21:50;15.40;99.90
55648;DHT22;45266;48.756;9.246;2022-07-30T05:22:52;15.40;99.90
55648;DHT22;45266;48.756;9.246;2022-07-30T05:23:54;15.40;99.90
55648;DHT22;45266;48.756;9.246;2022-07-30T05:24:56;15.40;99.90
55648;DHT22;45266;48.756;9.246;2022-07-30T05:25:58;15.50;99.90
55648;DHT22;45266;48.756;9.246;2022-07-30T05:27:00;15.50;99.90
55648;DHT22;45266;48.756;9.246;2022-07-30T05:28:02;15.60;99.90
55648;DHT22;45266;48.756;9.246;2022-07-30T05:29:04;15.60;99.90
55648;DHT22;45266;48.756;9.246;2022-07-30T05:30:08;15.60;99.90
55648;DHT22;45266;48.756;9.246;2022-07-30T05:31:12;15.70;99.90
55648;DHT22;45266;48.756;9.246;2022-07-30T05:32:16;15.70;99.90
55648;DHT22;45266;48.756;9.246;2022-07-30T05:33:20;15.80;99.90
55648;DHT22;45266;48.756;9.246;2022-07-30T05:34:41;15.80;99.90
55648;DHT22;45266;48.756;9.246;2022-07-30T05:35:50;15.90;99.90
55648;DHT22;45266;48.756;9.246;2022-07-30T05:36:52;15.90;99.90
55648;DHT22;45266;48.756;9.246;2022-07-30T05:37:54;16.00;99.90
55648;DHT22;45266;48.756;9.246;2022-07-30T05:38:55;16.00;99.90
55648;DHT22;45266;48.756;9.246;2022-07-30T05:39:57;16.00;99.90
55648;DHT22;45266;48.756;9.246;2022-07-30T05:41:04;16.10;99.90
55648;DHT22;45266;48.756;9.246;2022-07-30T05:42:25;16.20;99.90
55648;DHT22;45266;48.756;9.246;2022-07-30T05:43:27;16.20;99.90
55648;DHT22;45266;48.756;9.246;2022-07-30T05:44:29;16.30;99.90
55648;DHT22;45266;48.756;9.246;2022-07-30T05:45:31;16.30;99.90
55648;DHT22;45266;48.756;9.246;2022-07-30T05:46:32;16.40;99.90
55648;DHT22;45266;48.756;9.246;2022-07-30T05:47:34;16.40;99.90
55648;DHT22;45266;48.756;9.246;2022-07-30T05:48:36;16.50;99.90
55648;DHT22;45266;48.756;9.246;2022-07-30T05:49:38;16.60;99.90
55648;DHT22;45266;48.756;9.246;2022-07-30T05:50:40;16.60;99.90
55648;DHT22;45266;48.756;9.246;2022-07-30T05:51:42;16.60;99.90
55648;DHT22;45266;48.756;9.246;2022-07-30T05:52:45;16.70;99.90
55648;DHT22;45266;48.756;9.246;2022-07-30T05:53:47;16.80;99.90
55648;DHT22;45266;48.756;9.246;2022-07-30T05:54:48;16.80;99.90
55648;DHT22;45266;48.756;9.246;2022-07-30T05:55:50;16.90;99.90
55648;DHT22;45266;48.756;9.246;2022-07-30T05:56:52;17.00;99.90
55648;DHT22;45266;48.756;9.246;2022-07-30T05:57:53;17.00;99.90
55648;DHT22;45266;48.756;9.246;2022-07-30T05:58:55;17.00;99.90
55648;DHT22;45266;48.756;9.246;2022-07-30T05:59:57;17.10;99.90
55648;DHT22;45266;48.756;9.246;2022-07-30T06:00:59;17.10;99.90
55648;DHT22;45266;48.756;9.246;2022-07-30T06:02:01;17.20;99.90
55648;DHT22;45266;48.756;9.246;2022-07-30T06:03:03;17.20;99.90
55648;DHT22;45266;48.756;9.246;2022-07-30T06:04:05;17.30;99.90
55648;DHT22;45266;48.756;9.246;2022-07-30T06:05:07;17.30;99.90
55648;DHT22;45266;48.756;9.246;2022-07-30T06:06:09;17.40;99.90
55648;DHT22;45266;48.756;9.246;2022-07-30T06:07:11;17.40;99.90
55648;DHT22;45266;48.756;9.246;2022-07-30T06:08:13;17.40;99.90
55648;DHT22;45266;48.756;9.246;2022-07-30T06:09:15;17.50;99.90
55648;DHT22;45266;48.756;9.246;2022-07-30T06:10:16;17.60;99.90
55648;DHT22;45266;48.756;9.246;2022-07-30T06:11:18;17.60;99.90
55648;DHT22;45266;48.756;9.246;2022-07-30T06:12:20;17.70;99.90
55648;DHT22;45266;48.756;9.246;2022-07-30T06:13:22;17.70;99.90
55648;DHT22;45266;48.756;9.246;2022-07-30T06:14:24;17.80;99.90
55648;DHT22;45266;48.756;9.246;2022-07-30T06:15:26;17.80;99.90
55648;DHT22;45266;48.756;9.246;2022-07-30T06:16:27;17.80;99.90
55648;DHT22;45266;48.756;9.246;2022-07-30T06:17:29;17.90;99.90
55648;DHT22;45266;48.756;9.246;2022-07-30T06:18:41;18.00;99.90
55648;DHT22;45266;48.756;9.246;2022-07-30T06:19:43;18.00;99.90
55648;DHT22;45266;48.756;9.246;2022-07-30T06:20:45;18.00;99.90
55648;DHT22;45266;48.756;9.246;2022-07-30T06:21:47;18.10;99.90
55648;DHT22;45266;48.756;9.246;2022-07-30T06:23:07;18.20;99.90
55648;DHT22;45266;48.756;9.246;2022-07-30T06:24:09;18.30;99.90
55648;DHT22;45266;48.756;9.246;2022-07-30T06:25:11;18.30;99.90
55648;DHT22;45266;48.756;9.246;2022-07-30T06:26:19;18.40;99.90
55648;DHT22;45266;48.756;9.246;2022-07-30T06:27:20;18.50;99.90
55648;DHT22;45266;48.756;9.246;2022-07-30T06:28:22;18.60;99.90
55648;DHT22;45266;48.756;9.246;2022-07-30T06:29:40;18.60;99.90
55648;DHT22;45266;48.756;9.246;2022-07-30T06:30:43;18.70;99.90
55648;DHT22;45266;48.756;9.246;2022-07-30T06:31:49;18.80;99.90
55648;DHT22;45266;48.756;9.246;2022-07-30T06:32:50;18.80;99.90
55648;DHT22;45266;48.756;9.246;2022-07-30T06:33:52;18.90;99.90
55648;DHT22;45266;48.756;9.246;2022-07-30T06:34:55;18.90;99.90
55648;DHT22;45266;48.756;9.246;2022-07-30T06:36:05;18.90;99.90
55648;DHT22;45266;48.756;9.246;2022-07-30T06:37:07;19.00;99.90
55648;DHT22;45266;48.756;9.246;2022-07-30T06:38:08;19.10;99.90
55648;DHT22;45266;48.756;9.246;2022-07-30T06:39:10;19.10;99.90
55648;DHT22;45266;48.756;9.246;2022-07-30T06:40:12;19.20;99.90
55648;DHT22;45266;48.756;9.246;2022-07-30T06:41:14;19.30;99.90
55648;DHT22;45266;48.756;9.246;2022-07-30T06:42:16;19.30;99.90
55648;DHT22;45266;48.756;9.246;2022-07-30T06:43:18;19.40;99.90
55648;DHT22;45266;48.756;9.246;2022-07-30T06:44:21;19.50;99.90
55648;DHT22;45266;48.756;9.246;2022-07-30T06:45:23;19.50;99.90
55648;DHT22;45266;48.756;9.246;2022-07-30T06:46:25;19.60;99.90
55648;DHT22;45266;48.756;9.246;2022-07-30T06:47:27;19.70;99.90
55648;DHT22;45266;48.756;9.246;2022-07-30T06:48:31;19.70;99.90
55648;DHT22;45266;48.756;9.246;2022-07-30T06:49:34;19.80;99.90